Time;durP1;ratioP1;P1;durP2;ratioP2;P2;SDS_P1;SDS_P2;PMS_P1;PMS_P2;Temp;Humidity;BMP_temperature;BMP_pressure;BME280_temperature;BME280_humidity;BME280_pressure;Samples;Min_cycle;Max_cycle;Signal;HPM_P1;HPM_P2
2022/06/01 00:00:11;;;;;;;0.20;0.20;;;;;;;19.82;37.87;101321.06;16138201;19;129705;-52
2022/06/01 00:05:32;;;;;;;0.43;0.30;;;;;;;19.81;37.92;101332.41;16136724;19;130125;-49
2022/06/01 00:10:55;;;;;;;0.30;0.30;;;;;;;19.80;37.83;101333.50;16140666;19;129206;-51
2022/06/01 00:16:17;;;;;;;0.32;0.22;;;;;;;19.80;37.93;101333.50;16139644;19;130512;-51
2022/06/01 00:22:11;;;;;;;0.25;0.20;;;;;;;19.79;37.94;101324.31;16139494;19;130197;-47
2022/06/01 00:27:21;;;;;;;2.78;0.43;;;;;;;19.78;37.68;101319.00;16139531;19;132249;-47
2022/06/01 00:32:43;;;;;;;0.20;0.20;;;;;;;19.77;38.10;101318.16;16139701;19;129497;-50
2022/06/01 00:38:05;;;;;;;0.47;0.20;;;;;;;19.77;37.88;101312.59;16138103;19;130332;-49
2022/06/01 00:43:44;;;;;;;0.10;0.10;;;;;;;19.78;38.03;101321.78;16134499;19;130267;-48
2022/06/01 00:49:17;;;;;;;0.20;0.20;;;;;;;19.77;37.74;101322.88;16134457;19;129509;-54
2022/06/01 00:54:40;;;;;;;0.50;0.20;;;;;;;19.76;38.03;101333.13;16137031;19;129643;-52
2022/06/01 01:00:20;;;;;;;0.17;0.10;;;;;;;19.76;37.75;101321.19;16136428;19;130134;-48
2022/06/01 01:05:55;;;;;;;0.10;0.10;;;;;;;19.75;37.97;101331.47;16131209;19;130643;-48
2022/06/01 01:11:24;;;;;;;1.00;0.30;;;;;;;19.74;38.14;101331.69;16133398;19;129686;-54
2022/06/01 01:16:48;;;;;;;0.47;0.20;;;;;;;19.73;37.86;101327.22;16135118;19;129544;-51
2022/06/01 01:22:18;;;;;;;0.60;0.10;;;;;;;19.73;38.21;101316.97;16133409;19;130097;-48
2022/06/01 01:27:40;;;;;;;0.43;0.20;;;;;;;19.71;38.09;101323.84;16134608;19;130279;-49
2022/06/01 01:33:09;;;;;;;0.82;0.20;;;;;;;19.69;37.70;101315.75;16134439;19;129526;-53
2022/06/01 01:38:42;;;;;;;0.40;0.20;;;;;;;19.69;38.14;101319.38;16132345;19;129988;-47
2022/06/01 01:44:06;;;;;;;0.22;0.20;;;;;;;19.66;37.91;101317.09;16130876;19;130924;-49
2022/06/01 01:49:31;;;;;;;1.15;0.10;;;;;;;19.66;38.06;101317.09;16131479;19;129333;-49
2022/06/01 01:55:23;;;;;;;0.40;0.40;;;;;;;19.67;38.28;101324.34;16136365;19;130906;-47
2022/06/01 02:00:58;;;;;;;0.30;0.17;;;;;;;19.65;37.94;101320.97;16136326;19;130329;-47
2022/06/01 02:06:44;;;;;;;0.10;0.10;;;;;;;19.64;37.83;101324.81;16126725;19;129788;-48
2022/06/01 02:17:51;;;;;;;0.20;0.10;;;;;;;19.62;38.18;101332.53;16147800;19;129788;-49
2022/06/01 02:23:15;;;;;;;0.65;0.30;;;;;;;19.61;38.12;101324.47;16144514;19;131290;-48
2022/06/01 02:28:41;;;;;;;0.50;0.17;;;;;;;19.60;37.95;101318.06;16147738;19;130309;-47
2022/06/01 02:34:03;;;;;;;;;;;;;;;19.57;38.40;101313.00;16148209;19;129538;-51
2022/06/01 02:39:27;;;;;;;0.40;0.30;;;;;;;19.57;38.11;101310.22;16143485;19;130273;-49
2022/06/01 02:44:48;;;;;;;0.35;0.22;;;;;;;19.58;38.15;101313.84;16141710;19;130370;-48
2022/06/01 02:50:17;;;;;;;0.20;0.20;;;;;;;19.57;38.12;101313.00;16141781;19;131484;-48
2022/06/01 02:55:39;;;;;;;0.68;0.20;;;;;;;19.56;38.13;101308.56;16142916;19;129828;-49
2022/06/01 03:01:01;;;;;;;3.40;0.30;;;;;;;19.56;38.23;101304.91;16142918;19;130575;-52
2022/06/01 03:06:23;;;;;;;1.30;0.30;;;;;;;19.54;38.13;101307.94;16137559;19;130237;-53
2022/06/01 03:12:06;;;;;;;0.50;0.20;;;;;;;19.53;37.82;101314.59;16135964;19;130320;-53
2022/06/01 03:17:28;;;;;;;0.22;0.20;;;;;;;19.52;38.10;101310.13;16135290;19;130874;-51
2022/06/01 03:22:50;;;;;;;1.35;0.30;;;;;;;19.51;37.79;101317.59;16138750;19;129552;-48
2022/06/01 03:28:12;;;;;;;0.45;0.30;;;;;;;19.51;37.86;101313.97;16142694;19;129646;-50
2022/06/01 03:33:35;;;;;;;1.15;0.35;;;;;;;19.49;38.11;101319.78;16145960;19;129451;-48
2022/06/01 03:38:57;;;;;;;2.65;0.30;;;;;;;19.49;37.82;101322.56;16141454;19;130424;-52
2022/06/01 03:50:00;;;;;;;0.70;0.20;;;;;;;19.47;37.90;101329.41;16142128;19;129843;-53
2022/06/01 03:55:22;;;;;;;0.50;0.10;;;;;;;19.46;37.78;101327.72;16137947;19;133044;-48
2022/06/01 04:00:45;;;;;;;0.95;0.40;;;;;;;19.46;37.85;101322.19;16142834;19;129757;-52
2022/06/01 04:06:07;;;;;;;0.60;0.30;;;;;;;19.44;37.56;101324.38;16134646;19;129259;-49
2022/06/01 04:11:29;;;;;;;0.60;0.40;;;;;;;19.44;37.92;101324.38;16139029;19;129316;-52
2022/06/01 04:16:51;;;;;;;0.47;0.30;;;;;;;19.43;37.98;101333.78;16136955;19;129954;-51
2022/06/01 04:22:14;;;;;;;0.80;0.28;;;;;;;19.43;37.64;101342.09;16138701;19;129356;-53
2022/06/01 04:27:36;;;;;;;0.70;0.30;;;;;;;19.42;37.65;101334.88;16137989;19;130474;-48
2022/06/01 04:33:01;;;;;;;2.22;0.38;;;;;;;19.43;37.65;101317.13;16136326;19;129814;-52
2022/06/01 04:38:23;;;;;;;0.65;0.17;;;;;;;19.41;37.62;101330.41;16134507;19;130400;-49
2022/06/01 04:43:45;;;;;;;1.00;0.20;;;;;;;19.40;37.37;101334.25;16135235;19;129964;-50
2022/06/01 04:49:07;;;;;;;0.80;0.30;;;;;;;19.40;37.66;101334.25;16136688;19;130161;-49
2022/06/01 04:54:29;;;;;;;0.47;0.30;;;;;;;19.40;37.45;101346.19;16134038;19;129371;-51
2022/06/01 04:59:51;;;;;;;0.47;0.17;;;;;;;19.41;37.73;101349.81;16130251;19;129348;-46
2022/06/01 05:05:12;;;;;;;0.75;0.30;;;;;;;19.40;37.54;101334.25;16132262;19;129572;-53
2022/06/01 05:10:35;;;;;;;2.05;0.20;;;;;;;19.41;37.85;101341.50;16133286;19;133299;-49
2022/06/01 05:16:01;;;;;;;1.58;0.30;;;;;;;19.46;37.71;101344.38;16134452;19;130644;-52
2022/06/01 05:21:22;;;;;;;4.22;0.30;;;;;;;19.49;37.77;101352.22;16135059;19;130426;-46
2022/06/01 05:26:44;;;;;;;2.50;0.30;;;;;;;19.52;37.48;101357.28;16133590;19;130136;-46
2022/06/01 05:32:06;;;;;;;3.38;0.63;;;;;;;19.57;37.28;101343.53;16133804;19;129727;-49
2022/06/01 05:37:28;;;;;;;1.20;0.40;;;;;;;19.63;37.16;101356.44;16133589;19;129687;-47
2022/06/01 05:42:50;;;;;;;2.80;0.52;;;;;;;19.68;37.15;101359.34;16129149;19;130431;-48
2022/06/01 05:48:15;;;;;;;0.47;0.20;;;;;;;19.76;37.09;101360.03;16131899;19;130336;-51
2022/06/01 05:53:36;;;;;;;2.30;0.20;;;;;;;19.79;37.17;101360.41;16131852;19;130153;-49
2022/06/01 05:58:58;;;;;;;0.77;0.30;;;;;;;19.85;37.41;101364.13;16127116;19;130715;-47
2022/06/01 06:04:20;;;;;;;1.63;0.40;;;;;;;19.90;37.37;101367.03;16130366;19;129613;-46
2022/06/01 06:09:42;;;;;;;0.57;0.28;;;;;;;19.95;37.57;101361.56;16129291;19;129408;-51
2022/06/01 06:15:04;;;;;;;0.85;0.20;;;;;;;19.98;37.44;101369.41;16131526;19;130652;-50
2022/06/01 06:20:25;;;;;;;1.02;0.20;;;;;;;20.02;37.28;101380.09;16134408;19;129357;-46
2022/06/01 06:25:48;;;;;;;1.77;0.40;;;;;;;20.01;37.15;101379.22;16133509;19;129586;-48
2022/06/01 06:31:10;;;;;;;1.48;0.40;;;;;;;20.01;37.04;101387.56;16131386;19;129460;-50
2022/06/01 06:36:31;;;;;;;0.57;0.22;;;;;;;20.01;36.98;101382.00;16135685;19;130921;-50
2022/06/01 06:41:54;;;;;;;2.40;0.20;;;;;;;20.01;37.11;101395.06;16130117;19;130496;-48
2022/06/01 06:47:16;;;;;;;1.38;0.25;;;;;;;19.99;37.35;101390.59;16119238;19;130381;-52
2022/06/01 06:52:39;;;;;;;1.25;0.22;;;;;;;20.03;37.31;101399.25;16123236;19;129598;-48
2022/06/01 06:58:01;;;;;;;0.77;0.20;;;;;;;20.08;37.23;101401.31;16120401;19;129863;-53
2022/06/01 07:03:23;;;;;;;1.77;0.30;;;;;;;20.10;37.06;101404.69;16139509;19;131022;-52
2022/06/01 07:08:48;;;;;;;0.60;0.20;;;;;;;20.17;36.88;101410.97;16140395;19;129664;-51
2022/06/01 07:14:10;;;;;;;1.67;0.30;;;;;;;20.21;37.12;101405.75;16141986;19;129796;-49
2022/06/01 07:19:32;;;;;;;0.82;0.30;;;;;;;20.27;37.21;101416.75;16147684;19;129698;-46
2022/06/01 07:24:53;;;;;;;1.77;0.50;;;;;;;20.31;37.26;101421.81;16143391;19;130283;-45
2022/06/01 07:30:16;;;;;;;2.67;0.75;;;;;;;20.37;36.96;101423.59;16144353;19;130442;-47
2022/06/01 07:35:38;;;;;;;3.33;0.52;;;;;;;20.43;36.94;101426.22;16142671;19;129273;-46
2022/06/01 07:46:40;;;;;;;4.20;0.60;;;;;;;20.54;36.53;101426.44;16138168;19;130670;-46
2022/06/01 07:52:09;;;;;;;6.13;1.00;;;;;;;20.60;36.76;101426.28;16143467;19;130369;-48
2022/06/01 07:57:32;;;;;;;7.13;1.50;;;;;;;20.59;36.49;101432.94;16142357;19;130271;-48
2022/06/01 08:02:53;;;;;;;6.20;1.40;;;;;;;20.57;36.91;101432.34;16146760;19;132248;-49
2022/06/01 08:08:15;;;;;;;6.30;1.20;;;;;;;20.57;36.64;101425.94;16139714;19;129100;-49
2022/06/01 08:13:37;;;;;;;6.53;1.33;;;;;;;20.55;36.67;101428.97;16143754;19;129009;-47
2022/06/01 08:18:59;;;;;;;1.67;0.88;;;;;;;20.53;36.37;101436.72;16144004;19;128946;-46
2022/06/01 08:24:20;;;;;;;7.38;1.20;;;;;;;20.51;36.00;101432.47;16143986;19;129527;-45
2022/06/01 08:29:42;;;;;;;6.47;1.23;;;;;;;20.50;36.18;101430.78;16144878;19;129898;-48
2022/06/01 08:35:06;;;;;;;11.85;1.52;;;;;;;20.46;36.19;101438.78;16141650;19;129150;-48
2022/06/01 08:40:31;;;;;;;4.53;1.23;;;;;;;20.42;36.41;101432.03;16141775;19;130714;-50
2022/06/01 08:45:59;;;;;;;4.47;1.27;;;;;;;20.39;36.36;101435.31;16141122;19;129618;-45
2022/06/01 08:51:25;;;;;;;6.63;1.65;;;;;;;20.36;36.41;101433.88;16143879;19;130633;-46
2022/06/01 08:56:51;;;;;;;5.05;1.45;;;;;;;20.39;36.39;101435.31;16140604;19;130557;-50
2022/06/01 09:02:13;;;;;;;3.08;1.05;;;;;;;20.42;36.17;101438.44;16143256;19;129519;-51
2022/06/01 09:07:48;;;;;;;6.45;1.17;;;;;;;20.42;36.15;101435.66;16137295;19;129600;-49
2022/06/01 09:13:19;;;;;;;3.22;1.10;;;;;;;20.46;35.88;101433.22;16141849;19;131310;-45
2022/06/01 09:18:49;;;;;;;2.67;0.93;;;;;;;20.39;35.99;101435.31;16141583;19;129658;-48
2022/06/01 09:24:13;;;;;;;3.80;1.10;;;;;;;20.34;35.79;101451.88;16139664;19;131072;-49
2022/06/01 09:29:45;;;;;;;2.60;0.70;;;;;;;20.29;35.92;101449.81;16141644;19;129079;-49
2022/06/01 09:35:11;;;;;;;3.40;0.80;;;;;;;20.26;35.70;101437.28;16139428;19;129060;-45
2022/06/01 09:40:36;;;;;;;1.70;0.70;;;;;;;20.22;35.84;101436.06;16135921;19;129374;-51
2022/06/01 09:45:58;;;;;;;3.77;0.87;;;;;;;20.21;35.91;101436.31;16135003;19;130352;-48
2022/06/01 09:51:23;;;;;;;2.38;0.68;;;;;;;20.23;35.66;101443.31;16138087;19;129746;-51
2022/06/01 09:56:46;;;;;;;2.45;0.70;;;;;;;20.26;36.04;101425.28;16136992;19;130569;-51
2022/06/01 10:08:11;;;;;;;3.13;0.60;;;;;;;20.33;35.52;101436.28;16131501;19;129522;-47
2022/06/01 10:13:47;;;;;;;3.03;0.90;;;;;;;20.36;35.64;101427.47;16135253;19;130364;-51
2022/06/01 10:19:13;;;;;;;2.35;0.63;;;;;;;20.36;35.67;101435.78;16136545;19;130090;-50
2022/06/01 10:24:38;;;;;;;3.65;0.90;;;;;;;20.35;35.61;101428.53;16136749;19;129859;-48
2022/06/01 10:30:20;;;;;;;2.78;0.98;;;;;;;20.35;35.62;101439.66;16136539;19;131414;-48
2022/06/01 10:35:47;;;;;;;3.05;0.85;;;;;;;20.36;35.83;101446.91;16144103;19;130557;-47
2022/06/01 10:41:27;;;;;;;4.10;0.70;;;;;;;20.40;36.17;101450.91;16142784;19;131001;-53
2022/06/01 10:47:09;;;;;;;2.10;0.80;;;;;;;20.42;35.90;101457.06;16146811;19;128911;-49
2022/06/01 10:52:40;;;;;;;1.63;0.60;;;;;;;20.42;36.14;101454.28;16152973;19;129045;-48
2022/06/01 10:58:03;;;;;;;2.65;0.70;;;;;;;20.40;36.05;101456.44;16148144;19;129663;-49
2022/06/01 11:03:36;;;;;;;1.98;0.80;;;;;;;20.39;35.90;101490.88;16150447;19;130294;-52
2022/06/01 11:09:02;;;;;;;4.00;1.00;;;;;;;20.34;35.89;101461.06;16143664;19;129175;-47
2022/06/01 11:14:59;;;;;;;2.03;1.00;;;;;;;20.34;35.82;101462.97;16150405;19;129280;-49
2022/06/01 11:20:45;;;;;;;1.90;0.82;;;;;;;20.33;35.97;101464.94;16149989;19;128902;-49
2022/06/01 11:26:31;;;;;;;3.73;0.77;;;;;;;20.34;36.15;101474.09;16148598;19;129515;-49
2022/06/01 11:31:58;;;;;;;3.70;0.77;;;;;;;20.31;36.05;101478.22;16148517;19;129312;-47
2022/06/01 11:37:33;;;;;;;2.22;0.70;;;;;;;20.32;36.50;101482.69;16147436;19;129511;-47
2022/06/01 11:43:04;;;;;;;2.30;0.60;;;;;;;20.30;36.44;101479.31;16142759;19;128954;-50
2022/06/01 11:48:32;;;;;;;6.10;0.70;;;;;;;20.29;36.59;101491.50;16140172;19;129298;-47
2022/06/01 11:54:26;;;;;;;1.05;0.50;;;;;;;20.26;36.18;101498.41;16147175;19;128898;-47
2022/06/01 12:00:06;;;;;;;0.50;0.50;;;;;;;20.27;36.30;101499.22;16139559;19;132112;-45
2022/06/01 12:05:28;;;;;;;1.73;0.60;;;;;;;20.24;36.29;101495.00;16144767;19;129253;-48
2022/06/01 12:10:56;;;;;;;3.80;0.70;;;;;;;20.25;36.81;101496.69;16147006;19;129050;-50
2022/06/01 12:16:18;;;;;;;1.83;0.70;;;;;;;20.21;36.41;101501.03;16145748;19;130300;-50
2022/06/01 12:21:42;;;;;;;0.98;0.50;;;;;;;20.22;36.61;101513.84;16140443;19;129970;-47
2022/06/01 12:33:07;;;;;;;1.95;0.60;;;;;;;20.24;36.85;101514.47;16142432;19;129020;-51
2022/06/01 12:38:34;;;;;;;3.00;0.70;;;;;;;20.28;36.42;101524.00;16140887;19;129201;-52
2022/06/01 12:43:58;;;;;;;1.40;0.40;;;;;;;20.29;36.66;101513.72;16143181;19;129097;-52
2022/06/01 12:49:41;;;;;;;1.05;0.60;;;;;;;20.31;36.75;101516.28;16135292;19;130465;-47
2022/06/01 12:55:12;;;;;;;2.08;0.45;;;;;;;20.30;36.31;101520.97;16143449;19;129617;-47
2022/06/01 13:00:37;;;;;;;1.52;0.50;;;;;;;20.33;36.56;101525.19;16136181;19;129501;-50
2022/06/01 13:06:06;;;;;;;0.93;0.40;;;;;;;20.32;36.72;101527.13;16140754;19;129048;-51
2022/06/01 13:11:31;;;;;;;2.72;0.60;;;;;;;20.34;36.82;101538.88;16143814;19;129983;-52
2022/06/01 13:16:59;;;;;;;1.95;0.50;;;;;;;20.33;36.58;101539.09;16142954;19;130470;-51
2022/06/01 13:22:28;;;;;;;0.70;0.50;;;;;;;20.34;36.53;101549.13;16140917;19;129358;-53
2022/06/01 13:27:53;;;;;;;0.52;0.45;;;;;;;20.31;36.44;101544.06;16134570;19;130770;-48
2022/06/01 13:33:19;;;;;;;0.73;0.40;;;;;;;20.30;36.57;101543.22;16139303;19;130754;-50
2022/06/01 13:38:49;;;;;;;0.73;0.40;;;;;;;20.29;36.37;101544.28;16135508;19;129279;-48
2022/06/01 13:44:13;;;;;;;2.55;0.40;;;;;;;20.26;36.08;101551.19;16139189;19;129619;-50
2022/06/01 13:49:34;;;;;;;0.88;0.35;;;;;;;20.22;36.07;101576.91;16134343;19;129875;-51
2022/06/01 13:55:19;;;;;;;1.08;0.40;;;;;;;20.20;35.97;101577.16;16138812;19;129369;-46
2022/06/01 14:00:45;;;;;;;0.57;0.40;;;;;;;20.17;36.26;101571.22;16131173;19;129642;-54
2022/06/01 14:06:09;;;;;;;1.58;0.43;;;;;;;20.15;36.30;101563.16;16133279;19;130023;-56
2022/06/01 14:11:31;;;;;;;0.80;0.30;;;;;;;20.15;36.35;101560.38;16141905;19;129286;-58
2022/06/01 14:16:56;;;;;;;1.60;0.43;;;;;;;20.16;36.72;101552.88;16140596;19;129517;-52
2022/06/01 14:22:18;;;;;;;3.53;0.60;;;;;;;20.16;36.44;101563.97;16141571;19;129258;-57
2022/06/01 14:33:20;;;;;;;2.05;0.80;;;;;;;20.17;36.54;101585.97;16150165;19;130883;-58
2022/06/01 14:38:41;;;;;;;4.15;0.60;;;;;;;20.14;36.98;101584.50;16150881;19;129310;-55
2022/06/01 14:44:06;;;;;;;2.75;0.47;;;;;;;20.13;36.63;101580.03;16154801;19;129371;-58
2022/06/01 14:49:28;;;;;;;5.63;0.50;;;;;;;20.11;36.80;101579.47;16150833;19;129027;-58
2022/06/01 14:54:50;;;;;;;6.38;0.60;;;;;;;20.11;37.12;101573.03;16150575;19;128987;-57
2022/06/01 15:00:12;;;;;;;1.52;0.60;;;;;;;20.11;37.20;101570.25;16150624;19;130309;-56
2022/06/01 15:05:34;;;;;;;2.05;0.60;;;;;;;20.13;37.02;101576.44;16153902;19;129133;-57
2022/06/01 15:10:55;;;;;;;6.15;0.60;;;;;;;20.16;37.14;101575.09;16151947;19;129977;-58
2022/06/01 15:16:18;;;;;;;3.65;0.50;;;;;;;20.17;37.32;101588.75;16149297;19;129653;-58
2022/06/01 15:21:44;;;;;;;2.63;0.47;;;;;;;20.18;37.47;101579.34;16146955;19;129525;-58
2022/06/01 15:27:10;;;;;;;11.30;2.50;;;;;;;20.20;38.15;101579.91;16148997;19;129296;-58
2022/06/01 15:43:56;;;;;;;8.27;3.10;;;;;;;20.21;39.04;101592.72;16148856;19;129087;-59
2022/06/01 15:49:19;;;;;;;5.03;2.43;;;;;;;20.22;39.49;101594.44;16142932;19;128855;-57
2022/06/01 15:54:41;;;;;;;7.93;1.85;;;;;;;20.25;39.94;101596.72;16149258;19;132297;-58
2022/06/01 16:00:05;;;;;;;5.80;1.70;;;;;;;20.26;40.18;101595.63;16143129;19;129256;-57
2022/06/01 16:05:27;;;;;;;3.10;1.52;;;;;;;20.27;40.06;101611.22;16150018;19;130443;-56
2022/06/01 16:10:49;;;;;;;7.25;1.38;;;;;;;20.31;40.28;101606.03;16147351;19;130400;-59
2022/06/01 16:16:12;;;;;;;5.43;1.48;;;;;;;20.32;39.84;101607.72;16146848;19;129656;-58
2022/06/01 16:21:36;;;;;;;7.97;1.42;;;;;;;20.32;39.86;101613.28;16143814;19;129107;-58
2022/06/01 16:26:58;;;;;;;4.05;1.13;;;;;;;20.34;39.21;101616.66;16139564;19;129677;-57
2022/06/01 16:32:34;;;;;;;2.65;1.00;;;;;;;20.36;39.50;101621.97;16142852;19;129858;-57
2022/06/01 16:37:55;;;;;;;5.18;1.08;;;;;;;20.37;39.91;101620.88;16136751;19;129053;-53
2022/06/01 16:43:17;;;;;;;3.08;1.23;;;;;;;20.41;39.30;101616.56;16130635;19;129362;-53
2022/06/01 16:48:41;;;;;;;10.82;0.90;;;;;;;20.43;39.00;101633.84;16130659;19;130194;-58
2022/06/01 16:54:03;;;;;;;4.28;0.85;;;;;;;20.46;38.36;101633.31;16133400;19;129936;-58
2022/06/01 16:59:33;;;;;;;5.88;1.20;;;;;;;20.49;38.23;101635.63;16128025;19;130539;-56
2022/06/01 17:04:57;;;;;;;2.83;0.80;;;;;;;20.52;38.51;101640.72;16133245;19;131404;-55
2022/06/01 17:10:21;;;;;;;5.38;0.90;;;;;;;20.53;38.21;101639.63;16121442;19;130279;-52
2022/06/01 17:15:42;;;;;;;4.18;1.05;;;;;;;20.54;38.25;101649.66;16130471;19;130112;-59
2022/06/01 17:21:04;;;;;;;4.03;0.77;;;;;;;20.57;38.16;101654.72;16132208;19;130646;-55
2022/06/01 17:26:31;;;;;;;1.73;0.80;;;;;;;20.59;37.72;101648.94;16133655;19;131114;-58
2022/06/01 17:32:08;;;;;;;3.33;0.63;;;;;;;20.57;38.08;101660.28;16123362;19;129715;-58
2022/06/01 17:37:29;;;;;;;1.45;1.00;;;;;;;20.56;37.55;101661.38;16124827;19;130092;-56
2022/06/01 17:42:53;;;;;;;3.17;1.00;;;;;;;20.59;37.79;101672.00;16121365;19;130313;-56
2022/06/01 17:48:21;;;;;;;2.72;0.68;;;;;;;20.56;37.56;101675.25;16121798;19;129845;-55
2022/06/01 17:53:44;;;;;;;0.98;0.70;;;;;;;20.54;37.56;101677.47;16118913;19;130122;-57
2022/06/01 17:59:18;;;;;;;2.85;0.50;;;;;;;20.55;37.34;101690.28;16112232;19;130630;-58
2022/06/01 18:04:42;;;;;;;2.00;0.80;;;;;;;20.53;37.57;101686.88;16122200;19;129978;-52
2022/06/01 18:10:06;;;;;;;2.47;0.50;;;;;;;20.51;37.13;101700.19;16118591;19;131192;-58
2022/06/01 18:15:28;;;;;;;2.47;0.57;;;;;;;20.50;37.56;101717.94;16124606;19;129440;-58
2022/06/01 18:20:52;;;;;;;19.50;1.98;;;;;;;20.49;37.26;101719.03;16122869;19;131794;-50
2022/06/01 18:26:16;;;;;;;8.70;1.15;;;;;;;20.46;37.24;101719.50;16125608;19;131856;-55
2022/06/01 18:31:42;;;;;;;14.75;1.13;;;;;;;20.43;37.67;101728.34;16132015;19;129207;-53
2022/06/01 18:37:24;;;;;;;11.82;1.00;;;;;;;20.40;38.46;101726.84;16128364;19;129884;-55
2022/06/01 18:42:46;;;;;;;8.25;1.23;;;;;;;20.40;38.27;101729.63;16127450;19;130055;-53
2022/06/01 18:48:09;;;;;;;10.55;1.08;;;;;;;20.38;38.97;101725.41;16124414;19;130126;-55
2022/06/01 18:53:32;;;;;;;5.70;1.13;;;;;;;20.38;39.94;101728.19;16123081;19;131079;-54
2022/06/01 18:58:57;;;;;;;4.63;1.05;;;;;;;20.37;40.26;101737.59;16131232;19;129658;-56
2022/06/01 19:04:19;;;;;;;3.00;0.82;;;;;;;20.35;40.96;101734.22;16140220;19;130054;-55
2022/06/01 19:09:40;;;;;;;9.68;1.00;;;;;;;20.35;41.39;101746.19;16137160;19;130670;-51
2022/06/01 19:15:03;;;;;;;3.50;0.80;;;;;;;20.33;41.74;101748.34;16139238;19;130180;-55
2022/06/01 19:20:31;;;;;;;5.93;0.90;;;;;;;20.32;42.10;101751.34;16142610;19;129938;-50
2022/06/01 19:25:56;;;;;;;2.25;0.68;;;;;;;20.30;42.78;101759.94;16138395;19;129933;-57
2022/06/01 19:31:21;;;;;;;3.72;0.90;;;;;;;20.26;42.81;101765.13;16144525;19;129397;-57
2022/06/01 19:48:09;;;;;;;5.30;0.77;;;;;;;20.21;44.33;101794.72;16144931;19;129859;-56
2022/06/01 19:53:30;;;;;;;22.95;2.28;;;;;;;20.18;44.30;101793.25;16139980;19;129546;-57
2022/06/01 19:58:54;;;;;;;6.35;1.00;;;;;;;20.17;44.41;101811.00;16142157;19;129780;-58
2022/06/01 20:04:18;;;;;;;10.75;1.48;;;;;;;20.14;44.21;101811.47;16144232;19;129416;-58
2022/06/01 20:09:40;;;;;;;9.77;0.98;;;;;;;20.10;43.77;101813.88;16137660;19;129695;-57
2022/06/01 20:15:02;;;;;;;5.40;0.70;;;;;;;20.09;44.23;101819.66;16142904;19;129678;-58
2022/06/01 20:20:24;;;;;;;7.60;0.75;;;;;;;20.07;44.00;101827.38;16141283;19;130285;-58
2022/06/01 20:25:49;;;;;;;8.80;1.02;;;;;;;20.05;44.09;101833.16;16140349;19;130694;-57
2022/06/01 20:31:12;;;;;;;5.27;0.87;;;;;;;20.03;44.48;101842.81;16138836;19;130048;-57
2022/06/01 20:36:35;;;;;;;4.95;1.08;;;;;;;20.02;44.67;101841.97;16146344;19;130611;-59
2022/06/01 20:41:57;;;;;;;6.55;0.70;;;;;;;20.00;44.52;101846.91;16136468;19;131013;-57
2022/06/01 20:47:23;;;;;;;1.60;0.68;;;;;;;19.98;44.72;101855.44;16131634;19;129678;-59
2022/06/01 20:52:45;;;;;;;1.55;0.57;;;;;;;19.97;44.74;101844.56;16136291;19;131628;-56
2022/06/01 20:58:07;;;;;;;1.83;0.90;;;;;;;19.96;44.95;101854.00;16134572;19;130738;-58
2022/06/01 21:03:30;;;;;;;1.83;0.60;;;;;;;19.94;45.58;101851.44;16134995;19;130608;-59
2022/06/01 21:08:51;;;;;;;2.70;0.73;;;;;;;19.93;45.56;101855.31;16134317;19;129399;-58
2022/06/01 21:14:13;;;;;;;2.08;0.65;;;;;;;19.91;45.31;101857.47;16136733;19;129492;-57
2022/06/01 21:19:35;;;;;;;7.13;1.05;;;;;;;19.90;45.58;101861.31;16138416;19;129264;-57
2022/06/01 21:24:56;;;;;;;2.03;0.45;;;;;;;19.89;45.90;101859.63;16139649;19;130715;-59
2022/06/01 21:30:21;;;;;;;0.70;0.38;;;;;;;19.89;45.51;101855.97;16121428;19;130663;-59
2022/06/01 21:35:42;;;;;;;2.83;0.50;;;;;;;19.87;45.74;101861.78;16126042;19;129476;-58
2022/06/01 21:41:04;;;;;;;3.92;0.43;;;;;;;19.87;46.22;101860.94;16122188;19;129370;-58
2022/06/01 21:46:26;;;;;;;2.45;0.40;;;;;;;19.85;45.76;101861.16;16139917;19;128757;-57
2022/06/01 21:51:49;;;;;;;0.47;0.35;;;;;;;19.85;45.81;101866.72;16133532;19;130004;-58
2022/06/01 21:57:11;;;;;;;2.00;0.43;;;;;;;19.84;46.04;101862.25;16133927;19;129368;-59
2022/06/01 22:02:32;;;;;;;1.58;0.40;;;;;;;19.83;46.38;101866.09;16135708;19;131124;-58
2022/06/01 22:07:54;;;;;;;1.08;0.40;;;;;;;19.82;46.38;101869.94;16130759;19;129183;-59
2022/06/01 22:13:16;;;;;;;1.08;0.40;;;;;;;19.81;46.40;101879.38;16130417;19;130165;-58
2022/06/01 22:18:38;;;;;;;1.48;0.68;;;;;;;19.79;46.24;101875.97;16133284;19;130216;-58
2022/06/01 22:24:00;;;;;;;0.70;0.30;;;;;;;19.78;46.64;101869.56;16132873;19;128991;-59
2022/06/01 22:29:26;;;;;;;1.70;0.40;;;;;;;19.77;46.72;101876.19;16131165;19;130166;-58
2022/06/01 22:40:29;;;;;;;1.70;0.50;;;;;;;19.74;46.59;101881.38;16149545;19;129680;-58
2022/06/01 22:45:51;;;;;;;0.47;0.43;;;;;;;19.73;46.17;101882.44;16150104;19;130735;-58
2022/06/01 22:51:14;;;;;;;1.70;0.60;;;;;;;19.73;46.42;101882.44;16145333;19;130963;-58
2022/06/01 22:56:36;;;;;;;1.92;0.40;;;;;;;19.69;46.34;101894.00;16152367;19;129510;-58
2022/06/01 23:01:58;;;;;;;0.50;0.20;;;;;;;19.70;46.35;101889.31;16144434;19;130406;-58
2022/06/01 23:07:22;;;;;;;1.27;0.32;;;;;;;19.68;46.69;101897.03;16152494;19;130480;-59
2022/06/01 23:12:44;;;;;;;0.40;0.38;;;;;;;19.67;46.73;101893.41;16153147;19;129074;-59
2022/06/01 23:18:08;;;;;;;0.30;0.30;;;;;;;19.66;46.43;101905.59;16152671;19;130408;-59
2022/06/01 23:23:38;;;;;;;0.93;0.30;;;;;;;19.67;46.88;101907.28;16167358;19;129847;-59
2022/06/01 23:29:14;;;;;;;1.75;0.40;;;;;;;19.68;46.99;101902.56;16229307;19;129258;-59
2022/06/01 23:35:01;;;;;;;0.98;0.32;;;;;;;19.65;47.15;101906.66;16228993;19;128524;-59
2022/06/01 23:40:23;;;;;;;0.50;0.30;;;;;;;19.62;46.69;101898.78;16226147;19;129582;-57
2022/06/01 23:46:06;;;;;;;0.65;0.50;;;;;;;19.64;46.71;101896.63;16230970;19;129221;-58
2022/06/01 23:51:41;;;;;;;0.82;0.30;;;;;;;19.63;47.07;101903.25;16225453;19;128850;-59
2022/06/01 23:57:12;;;;;;;0.50;0.43;;;;;;;19.61;46.82;101902.63;16227951;19;128975;-59
